Time;durP1;ratioP1;P1;durP2;ratioP2;P2;SDS_P1;SDS_P2;PMS_P1;PMS_P2;Temp;Humidity;BMP_temperature;BMP_pressure;BME280_temperature;BME280_humidity;BME280_pressure;Samples;Min_cycle;Max_cycle;Signal;HPM_P1;HPM_P2
2022/07/05 00:02:08;;;;;;;;;;;;;;;22.04;98.46;97904.00;5069877;28;19912;-75
2022/07/05 00:04:33;;;;;;;;;;;;;;;22.06;98.58;97923.91;5069869;28;19946;-76
2022/07/05 00:09:42;;;;;;;;;;;;;;;22.03;98.50;97914.34;5071958;28;19970;-77
2022/07/05 00:12:08;;;;;;;;;;;;;;;21.90;100.00;97904.53;5071344;28;19912;-79
2022/07/05 00:14:33;;;;;;;;;;;;;;;21.92;100.00;97904.19;5072000;28;19916;-79
2022/07/05 00:16:59;;;;;;;;;;;;;;;21.98;100.00;97902.69;5071544;28;19912;-80
2022/07/05 00:19:24;;;;;;;;;;;;;;;22.02;100.00;97907.13;5071579;28;19916;-79
2022/07/05 00:21:49;;;;;;;;;;;;;;;22.12;100.00;97900.94;5071424;28;19966;-76
2022/07/05 00:24:15;;;;;;;;;;;;;;;22.14;100.00;97898.63;5077373;28;19912;-80
2022/07/05 00:26:40;;;;;;;;;;;;;;;22.09;100.00;97889.75;5080920;28;19912;-81
2022/07/05 00:29:05;;;;;;;;;;;;;;;22.05;100.00;97875.78;5080381;28;19924;-82
2022/07/05 00:31:30;;;;;;;;;;;;;;;21.96;100.00;97877.97;5073443;28;20380;-80
2022/07/05 00:33:56;;;;;;;;;;;;;;;21.71;100.00;97873.91;5071667;28;19954;-76
2022/07/05 00:36:21;;;;;;;;;;;;;;;21.54;100.00;97875.22;5071408;28;19920;-78
2022/07/05 00:38:46;;;;;;;;;;;;;;;21.45;100.00;97882.19;5071359;28;19916;-78
2022/07/05 00:41:11;;;;;;;;;;;;;;;21.40;100.00;97874.13;5071221;28;19920;-75
2022/07/05 00:43:37;;;;;;;;;;;;;;;21.36;100.00;97869.28;5071641;28;20351;-78
2022/07/05 00:46:02;;;;;;;;;;;;;;;21.28;100.00;97862.00;5071088;28;20352;-76
2022/07/05 00:48:27;;;;;;;;;;;;;;;21.21;100.00;97849.91;5071251;28;19916;-80
2022/07/05 00:50:52;;;;;;;;;;;;;;;21.23;100.00;97842.00;5071194;28;20054;-79
2022/07/05 00:53:18;;;;;;;;;;;;;;;21.00;100.00;97841.91;5071104;28;19916;-79
2022/07/05 00:55:44;;;;;;;;;;;;;;;20.56;100.00;97838.59;5070046;28;19913;-78
2022/07/05 00:58:10;;;;;;;;;;;;;;;20.25;100.00;97833.88;5071228;28;20015;-80
2022/07/05 01:00:35;;;;;;;;;;;;;;;20.05;100.00;97843.31;5071552;28;19923;-77
2022/07/05 01:03:01;;;;;;;;;;;;;;;19.83;100.00;97843.94;5072477;28;19919;-82
2022/07/05 01:05:26;;;;;;;;;;;;;;;19.74;100.00;97859.97;5070736;28;19913;-79
2022/07/05 01:07:52;;;;;;;;;;;;;;;19.75;100.00;97867.16;5071645;28;19958;-81
2022/07/05 01:10:17;;;;;;;;;;;;;;;19.70;100.00;97864.66;5073753;28;19965;-79
2022/07/05 01:12:42;;;;;;;;;;;;;;;19.76;100.00;97868.78;5072156;28;19916;-80
2022/07/05 01:15:08;;;;;;;;;;;;;;;19.77;100.00;97865.63;5072012;28;19923;-80
2022/07/05 01:17:35;;;;;;;;;;;;;;;19.79;100.00;97862.50;5075035;28;20309;-81
2022/07/05 01:20:01;;;;;;;;;;;;;;;19.82;100.00;97856.22;5075254;28;20046;-81
2022/07/05 01:22:27;;;;;;;;;;;;;;;19.75;100.00;97856.03;5075118;28;19948;-78
2022/07/05 01:24:53;;;;;;;;;;;;;;;19.72;100.00;97853.97;5074825;28;19916;-78
2022/07/05 01:27:19;;;;;;;;;;;;;;;19.73;100.00;97850.06;5074952;28;20897;-80
2022/07/05 01:29:45;;;;;;;;;;;;;;;19.67;100.00;97848.72;5074135;28;19913;-78
2022/07/05 01:32:10;;;;;;;;;;;;;;;19.72;100.00;97853.97;5076371;28;20015;-79
2022/07/05 01:34:39;;;;;;;;;;;;;;;19.80;100.00;97866.88;5082966;28;19913;-77
2022/07/05 01:37:05;;;;;;;;;;;;;;;19.86;100.00;97879.31;5076005;28;20391;-81
2022/07/05 01:39:31;;;;;;;;;;;;;;;19.84;100.00;97890.00;5075139;28;19924;-79
2022/07/05 01:41:56;;;;;;;;;;;;;;;19.85;100.00;97894.38;5073359;28;19917;-79
2022/07/05 01:44:21;;;;;;;;;;;;;;;19.85;100.00;97905.50;5075442;28;19916;-81
2022/07/05 01:46:50;;;;;;;;;;;;;;;19.85;100.00;97907.47;5075141;28;20357;-79
2022/07/05 01:49:17;;;;;;;;;;;;;;;19.71;100.00;97899.56;5074524;28;19916;-79
2022/07/05 01:51:50;;;;;;;;;;;;;;;19.48;100.00;97893.00;5076364;28;19977;-81
2022/07/05 01:54:16;;;;;;;;;;;;;;;19.47;100.00;97888.59;5075374;28;19917;-80
2022/07/05 01:56:41;;;;;;;;;;;;;;;19.27;100.00;97882.06;5075025;28;19923;-79
2022/07/05 01:59:07;;;;;;;;;;;;;;;19.35;100.00;97885.84;5074737;28;19994;-79
2022/07/05 02:01:36;;;;;;;;;;;;;;;19.40;100.00;97882.84;5074643;28;19912;-79
2022/07/05 02:04:02;;;;;;;;;;;;;;;19.47;100.00;97881.09;5073991;28;20365;-78
2022/07/05 02:06:28;;;;;;;;;;;;;;;19.73;100.00;97886.13;5074113;28;19924;-80
2022/07/05 02:08:53;;;;;;;;;;;;;;;19.82;100.00;97894.28;5072570;28;19916;-79
2022/07/05 02:11:18;;;;;;;;;;;;;;;19.91;100.00;97897.69;5074115;28;19916;-80
2022/07/05 02:13:43;;;;;;;;;;;;;;;19.95;100.00;97904.97;5074389;28;19924;-80
2022/07/05 02:16:09;;;;;;;;;;;;;;;20.04;100.00;97925.03;5074534;28;19913;-80
2022/07/05 02:18:34;;;;;;;;;;;;;;;20.08;100.00;97927.91;5074495;28;19960;-81
2022/07/05 02:20:59;;;;;;;;;;;;;;;20.15;100.00;97926.09;5075183;28;20269;-81
2022/07/05 02:23:24;;;;;;;;;;;;;;;20.26;100.00;97929.19;5074754;28;19959;-80
2022/07/05 02:25:51;;;;;;;;;;;;;;;20.21;100.00;97934.97;5075754;28;19913;-81
2022/07/05 02:28:17;;;;;;;;;;;;;;;20.29;100.00;97942.34;5074703;28;20010;-80
2022/07/05 02:30:42;;;;;;;;;;;;;;;20.25;100.00;97942.25;5075320;28;20054;-81
2022/07/05 02:33:07;;;;;;;;;;;;;;;20.25;100.00;97953.34;5075706;28;19904;-81
2022/07/05 02:35:32;;;;;;;;;;;;;;;20.16;100.00;97951.91;5076212;28;19917;-83
2022/07/05 02:37:58;;;;;;;;;;;;;;;20.15;100.00;97959.44;5078838;28;19962;-80
2022/07/05 02:40:23;;;;;;;;;;;;;;;20.22;100.00;97965.19;5075881;28;20390;-83
2022/07/05 02:42:48;;;;;;;;;;;;;;;20.21;100.00;97946.88;5075330;28;19916;-80
2022/07/05 02:45:13;;;;;;;;;;;;;;;20.19;100.00;97932.56;5074787;28;20269;-81
2022/07/05 02:47:39;;;;;;;;;;;;;;;20.11;100.00;97932.75;5074810;28;19916;-81
2022/07/05 02:50:05;;;;;;;;;;;;;;;20.00;100.00;97940.78;5075011;28;20010;-83
2022/07/05 02:52:30;;;;;;;;;;;;;;;20.20;100.00;97947.25;5075611;28;20281;-79
2022/07/05 02:54:56;;;;;;;;;;;;;;;20.21;100.00;97938.56;5074793;28;19962;-78
2022/07/05 02:57:21;;;;;;;;;;;;;;;19.99;100.00;97932.81;5072499;28;20387;-80
2022/07/05 02:59:46;;;;;;;;;;;;;;;19.97;100.00;97935.94;5071719;28;19917;-78
2022/07/05 03:02:11;;;;;;;;;;;;;;;19.93;100.00;97940.59;5069298;28;19999;-78
2022/07/05 03:04:36;;;;;;;;;;;;;;;19.71;100.00;97932.84;5063449;28;20299;-77
2022/07/05 03:07:02;;;;;;;;;;;;;;;19.70;100.00;97917.38;5052568;28;21317;-77
2022/07/05 03:09:27;;;;;;;;;;;;;;;19.44;100.00;97906.75;5064068;28;19913;-78
2022/07/05 03:11:52;;;;;;;;;;;;;;;19.23;100.00;97881.97;5072250;28;19989;-79
2022/07/05 03:14:17;;;;;;;;;;;;;;;18.90;100.00;97862.00;5072711;28;20324;-77
2022/07/05 03:16:44;;;;;;;;;;;;;;;18.58;100.00;97818.69;5072572;28;19912;-81
2022/07/05 03:19:09;;;;;;;;;;;;;;;18.46;100.00;97797.31;5073488;28;19990;-80
2022/07/05 03:21:35;;;;;;;;;;;;;;;18.39;100.00;97824.00;5060891;28;19916;-76
2022/07/05 03:24:00;;;;;;;;;;;;;;;18.48;100.00;97857.94;5051685;28;19956;-77
2022/07/05 03:26:25;;;;;;;;;;;;;;;18.65;100.00;97874.31;5051952;28;19927;-76
2022/07/05 03:28:51;;;;;;;;;;;;;;;18.78;100.00;97884.22;5051691;28;19917;-77
2022/07/05 03:31:16;;;;;;;;;;;;;;;18.84;100.00;97877.28;5051880;28;19923;-78
2022/07/05 03:33:41;;;;;;;;;;;;;;;18.94;100.00;97878.75;5052137;28;20020;-77
2022/07/05 03:36:06;;;;;;;;;;;;;;;18.93;100.00;97874.34;5051866;28;19956;-77
2022/07/05 03:38:33;;;;;;;;;;;;;;;19.01;100.00;97882.53;5051774;28;20369;-75
2022/07/05 03:40:58;;;;;;;;;;;;;;;19.09;100.00;97898.22;5052351;28;19913;-76
2022/07/05 03:43:23;;;;;;;;;;;;;;;19.13;100.00;97890.81;5058363;28;19935;-78
2022/07/05 03:45:48;;;;;;;;;;;;;;;19.00;100.00;97892.00;5055858;28;19912;-76
2022/07/05 03:48:14;;;;;;;;;;;;;;;19.10;100.00;97899.03;5051642;28;20283;-77
2022/07/05 03:50:39;;;;;;;;;;;;;;;19.07;100.00;97908.84;5051479;28;19912;-78
2022/07/05 03:53:04;;;;;;;;;;;;;;;19.02;100.00;97906.31;5051546;28;19917;-76
2022/07/05 03:55:29;;;;;;;;;;;;;;;19.10;100.00;97907.34;5051444;28;19959;-76
2022/07/05 03:57:55;;;;;;;;;;;;;;;19.14;100.00;97911.00;5061251;28;19916;-76
2022/07/05 04:00:20;;;;;;;;;;;;;;;19.24;100.00;97919.66;5071464;28;19919;-76
2022/07/05 04:02:46;;;;;;;;;;;;;;;19.33;100.00;97913.16;5071348;28;19919;-77
2022/07/05 04:05:11;;;;;;;;;;;;;;;19.40;100.00;97916.13;5071240;28;19912;-75
2022/07/05 04:07:53;;;;;;;;;;;;;;;19.40;100.00;97922.50;5069777;28;20014;-76
2022/07/05 04:10:19;;;;;;;;;;;;;;;19.42;100.00;97919.38;5086613;28;19912;-75
2022/07/05 04:12:44;;;;;;;;;;;;;;;19.46;100.00;97920.28;5071021;28;20276;-77
2022/07/05 04:15:10;;;;;;;;;;;;;;;19.51;100.00;97928.34;5071425;28;19991;-74
2022/07/05 04:17:35;;;;;;;;;;;;;;;19.63;100.00;97926.31;5071417;28;19912;-77
2022/07/05 04:20:00;;;;;;;;;;;;;;;19.68;100.00;97928.84;5070552;28;19969;-76
2022/07/05 04:22:26;;;;;;;;;;;;;;;19.64;100.00;97927.91;5071153;28;20015;-78
2022/07/05 04:27:35;;;;;;;;;;;;;;;19.53;100.00;97928.81;5071121;28;19923;-76
2022/07/05 04:30:00;;;;;;;;;;;;;;;19.55;100.00;97932.81;5071027;28;19912;-76
2022/07/05 04:32:25;;;;;;;;;;;;;;;19.55;100.00;97923.69;5071025;28;19962;-78
2022/07/05 04:34:50;;;;;;;;;;;;;;;19.51;100.00;97925.59;5070862;28;20641;-78
2022/07/05 04:37:16;;;;;;;;;;;;;;;19.55;100.00;97941.16;5070367;28;19912;-76
2022/07/05 04:39:41;;;;;;;;;;;;;;;19.54;100.00;97941.53;5070378;28;19966;-77
2022/07/05 04:42:06;;;;;;;;;;;;;;;19.52;100.00;97946.59;5068930;28;19912;-76
2022/07/05 04:44:31;;;;;;;;;;;;;;;19.53;100.00;97942.69;5071317;28;19923;-76
2022/07/05 04:46:57;;;;;;;;;;;;;;;19.50;100.00;97955.28;5070542;28;20297;-77
2022/07/05 04:49:22;;;;;;;;;;;;;;;19.68;100.00;97955.78;5069265;28;19999;-77
2022/07/05 04:51:47;;;;;;;;;;;;;;;19.71;100.00;97955.06;5073405;28;19923;-76
2022/07/05 04:54:12;;;;;;;;;;;;;;;19.70;100.00;97954.25;5074889;28;20253;-77
2022/07/05 04:56:38;;;;;;;;;;;;;;;19.67;100.00;97959.75;5076537;28;19916;-78
2022/07/05 04:59:03;;;;;;;;;;;;;;;19.65;100.00;97962.03;5084517;28;19912;-78
2022/07/05 05:01:28;;;;;;;;;;;;;;;19.79;100.00;97951.34;5084045;28;19916;-77
2022/07/05 05:03:53;;;;;;;;;;;;;;;19.90;100.00;97957.16;5082617;28;19916;-78
2022/07/05 05:06:18;;;;;;;;;;;;;;;19.92;100.00;97972.31;5077289;28;19912;-78
2022/07/05 05:08:44;;;;;;;;;;;;;;;20.03;100.00;97970.63;5075271;28;20053;-77
2022/07/05 05:11:09;;;;;;;;;;;;;;;20.11;100.00;97963.31;5068097;28;19923;-78
2022/07/05 05:13:34;;;;;;;;;;;;;;;20.18;100.00;97958.72;5064980;28;19921;-79
2022/07/05 05:16:01;;;;;;;;;;;;;;;20.35;100.00;97965.13;5054999;28;19917;-78
2022/07/05 05:18:27;;;;;;;;;;;;;;;20.45;100.00;97968.16;5070446;28;20387;-75
2022/07/05 05:20:55;;;;;;;;;;;;;;;20.50;100.00;97967.06;5074985;28;19962;-78
2022/07/05 05:23:21;;;;;;;;;;;;;;;20.64;100.00;97965.44;5075014;28;19913;-77
2022/07/05 05:25:46;;;;;;;;;;;;;;;20.73;100.00;97957.75;5081044;28;19920;-77
2022/07/05 05:28:11;;;;;;;;;;;;;;;21.10;100.00;97960.19;5074479;28;19978;-79
2022/07/05 05:30:36;;;;;;;;;;;;;;;21.28;100.00;97964.13;5074616;28;19912;-78
2022/07/05 05:33:02;;;;;;;;;;;;;;;21.58;100.00;97969.94;5073043;28;19912;-78
2022/07/05 05:35:27;;;;;;;;;;;;;;;21.68;100.00;97958.19;5075114;28;20280;-79
2022/07/05 05:37:53;;;;;;;;;;;;;;;21.81;100.00;97956.88;5074976;28;19916;-80
2022/07/05 05:40:19;;;;;;;;;;;;;;;21.91;100.00;97958.28;5067403;28;19926;-79
2022/07/05 05:42:44;;;;;;;;;;;;;;;21.99;100.00;97958.03;5071062;28;19917;-79
2022/07/05 05:45:10;;;;;;;;;;;;;;;22.48;100.00;97951.72;5063005;28;20011;-78
2022/07/05 05:47:45;;;;;;;;;;;;;;;22.69;100.00;97957.66;5074043;28;19920;-80
2022/07/05 05:50:11;;;;;;;;;;;;;;;23.00;100.00;97962.94;5070993;28;20352;-79
2022/07/05 05:52:36;;;;;;;;;;;;;;;23.14;100.00;97963.16;5074614;28;19963;-77
2022/07/05 05:55:01;;;;;;;;;;;;;;;23.04;100.00;97963.78;5080003;28;19916;-79
2022/07/05 05:57:26;;;;;;;;;;;;;;;23.48;100.00;97958.44;5073969;28;20361;-81
2022/07/05 05:59:51;;;;;;;;;;;;;;;23.63;100.00;97968.59;5068690;28;19916;-78
2022/07/05 06:02:17;;;;;;;;;;;;;;;23.47;100.00;97967.97;5068018;28;19920;-75
2022/07/05 06:04:42;;;;;;;;;;;;;;;23.55;100.00;97968.88;5060944;28;20373;-75
2022/07/05 06:07:07;;;;;;;;;;;;;;;22.96;100.00;97953.72;5078471;28;19927;-79
2022/07/05 06:09:32;;;;;;;;;;;;;;;22.76;100.00;97958.59;5068640;28;19925;-78
2022/07/05 06:11:57;;;;;;;;;;;;;;;23.04;100.00;97954.59;5065792;28;19923;-74
2022/07/05 06:14:23;;;;;;;;;;;;;;;22.59;100.00;97947.13;5070961;28;20388;-78
2022/07/05 06:16:48;;;;;;;;;;;;;;;22.75;100.00;97942.22;5071400;28;19922;-76
2022/07/05 06:19:13;;;;;;;;;;;;;;;23.06;100.00;97950.25;5065772;28;20007;-75
2022/07/05 06:21:38;;;;;;;;;;;;;;;25.02;100.00;97949.16;5070006;28;19963;-75
2022/07/05 06:24:04;;;;;;;;;;;;;;;25.42;96.66;97957.38;5069873;28;19939;-82
2022/07/05 06:26:29;;;;;;;;;;;;;;;24.77;100.00;97964.94;5069113;28;19912;-76
2022/07/05 06:28:54;;;;;;;;;;;;;;;23.80;100.00;97950.44;5069671;28;19920;-80
2022/07/05 06:31:19;;;;;;;;;;;;;;;23.39;100.00;97947.56;5070674;28;19919;-79
2022/07/05 06:33:45;;;;;;;;;;;;;;;23.71;100.00;97952.72;5070663;28;19950;-78
2022/07/05 06:36:10;;;;;;;;;;;;;;;23.83;100.00;97960.84;5068360;28;19974;-76
2022/07/05 06:38:35;;;;;;;;;;;;;;;23.95;100.00;97949.41;5075706;28;19912;-77
2022/07/05 06:41:03;;;;;;;;;;;;;;;24.14;100.00;97957.63;5070661;28;19931;-77
2022/07/05 06:43:28;;;;;;;;;;;;;;;24.04;100.00;97955.47;5066094;28;20369;-77
2022/07/05 06:45:55;;;;;;;;;;;;;;;23.72;100.00;97951.53;5065066;28;19935;-77
2022/07/05 06:48:21;;;;;;;;;;;;;;;23.72;100.00;97949.53;5070358;28;19918;-76
2022/07/05 06:50:46;;;;;;;;;;;;;;;23.41;100.00;97939.59;5069833;28;19920;-76
2022/07/05 06:53:12;;;;;;;;;;;;;;;23.31;100.00;97939.41;5069517;28;19916;-77
2022/07/05 06:55:41;;;;;;;;;;;;;;;23.60;100.00;97941.41;5071449;28;19916;-75
2022/07/05 06:58:11;;;;;;;;;;;;;;;23.67;100.00;97940.69;5071242;28;20034;-76
2022/07/05 07:00:37;;;;;;;;;;;;;;;24.11;100.00;97950.00;5068149;28;20416;-77
2022/07/05 07:03:02;;;;;;;;;;;;;;;24.22;100.00;97950.88;5071691;28;19916;-79
2022/07/05 07:05:28;;;;;;;;;;;;;;;24.58;100.00;97956.81;5070309;28;19916;-77
2022/07/05 07:10:37;;;;;;;;;;;;;;;24.88;97.52;97966.66;5069228;28;19965;-74
2022/07/05 07:13:02;;;;;;;;;;;;;;;24.66;98.79;97959.25;5064837;28;20003;-76
2022/07/05 07:15:34;;;;;;;;;;;;;;;24.46;100.00;97950.31;5068328;28;19924;-78
2022/07/05 07:17:59;;;;;;;;;;;;;;;24.69;100.00;97957.69;5067482;28;20347;-78
2022/07/05 07:20:25;;;;;;;;;;;;;;;25.01;100.00;97962.34;5068497;28;20015;-80
2022/07/05 07:22:58;;;;;;;;;;;;;;;25.30;100.00;97962.53;5066079;28;19916;-77
2022/07/05 07:25:23;;;;;;;;;;;;;;;25.74;100.00;97963.16;5065941;28;19921;-76
2022/07/05 07:27:50;;;;;;;;;;;;;;;25.67;99.08;97974.34;5058672;28;20395;-74
2022/07/05 07:30:16;;;;;;;;;;;;;;;25.84;97.20;97968.00;5070449;28;19912;-74
2022/07/05 07:32:41;;;;;;;;;;;;;;;25.74;98.09;97968.75;5070763;28;19920;-74
2022/07/05 07:35:07;;;;;;;;;;;;;;;24.95;100.00;97965.91;5070822;28;19923;-76
2022/07/05 07:37:32;;;;;;;;;;;;;;;24.71;100.00;97960.91;5071164;28;19912;-73
2022/07/05 07:39:58;;;;;;;;;;;;;;;25.08;100.00;97961.59;5069753;28;19916;-73
2022/07/05 07:42:23;;;;;;;;;;;;;;;25.48;99.66;97969.00;5070246;28;19962;-73
2022/07/05 07:44:49;;;;;;;;;;;;;;;25.34;100.00;97966.16;5071117;28;19916;-73
2022/07/05 07:47:14;;;;;;;;;;;;;;;25.39;99.72;97969.38;5071142;28;19998;-76
2022/07/05 07:49:41;;;;;;;;;;;;;;;25.59;100.00;97971.91;5070756;28;20030;-76
2022/07/05 07:52:10;;;;;;;;;;;;;;;24.20;100.00;97960.84;5071161;28;19927;-75
2022/07/05 07:54:35;;;;;;;;;;;;;;;24.40;100.00;97963.03;5069986;28;20415;-74
2022/07/05 07:57:04;;;;;;;;;;;;;;;24.69;100.00;97963.28;5070030;28;19956;-74
2022/07/05 07:59:29;;;;;;;;;;;;;;;25.31;95.11;97964.91;5070028;28;19974;-74
2022/07/05 08:01:54;;;;;;;;;;;;;;;25.53;92.76;97963.84;5070469;28;19951;-74
2022/07/05 08:04:19;;;;;;;;;;;;;;;26.01;89.62;97949.59;5070714;28;19916;-75
2022/07/05 08:06:45;;;;;;;;;;;;;;;25.58;89.94;97953.47;5072056;28;20438;-74
2022/07/05 08:09:11;;;;;;;;;;;;;;;25.80;89.36;97963.56;5075153;28;19922;-74
2022/07/05 08:11:36;;;;;;;;;;;;;;;25.89;87.87;97956.41;5070810;28;19916;-74
2022/07/05 08:14:01;;;;;;;;;;;;;;;26.34;85.96;97952.09;5069994;28;19924;-73
2022/07/05 08:16:26;;;;;;;;;;;;;;;26.17;87.28;97955.69;5070357;28;19923;-73
2022/07/05 08:21:37;;;;;;;;;;;;;;;26.44;87.27;97951.28;5067419;28;19970;-74
2022/07/05 08:24:04;;;;;;;;;;;;;;;26.42;86.28;97955.72;5069905;28;19916;-76
2022/07/05 08:26:30;;;;;;;;;;;;;;;26.38;85.05;97958.50;5067605;28;19922;-75
2022/07/05 08:28:58;;;;;;;;;;;;;;;26.13;83.38;97960.44;5070679;28;19912;-75
2022/07/05 08:31:23;;;;;;;;;;;;;;;25.77;86.91;97955.94;5070898;28;19918;-74
2022/07/05 08:33:48;;;;;;;;;;;;;;;26.95;81.33;97956.53;5070335;28;20343;-74
2022/07/05 08:36:14;;;;;;;;;;;;;;;27.52;77.42;97960.03;5073107;28;20444;-79
2022/07/05 08:38:39;;;;;;;;;;;;;;;27.69;73.80;97960.38;5088983;28;19920;-78
2022/07/05 08:41:07;;;;;;;;;;;;;;;27.33;75.03;97956.84;5083068;28;20014;-77
2022/07/05 08:43:32;;;;;;;;;;;;;;;27.29;73.61;97972.91;5073455;28;20006;-78
2022/07/05 08:45:58;;;;;;;;;;;;;;;27.45;74.33;97964.84;5085837;28;20349;-78
2022/07/05 08:48:23;;;;;;;;;;;;;;;28.15;70.56;97975.03;5082686;28;20292;-77
2022/07/05 08:50:51;;;;;;;;;;;;;;;27.78;71.79;97967.16;5085416;28;20289;-79
2022/07/05 08:53:19;;;;;;;;;;;;;;;27.60;73.36;97963.59;5075649;28;19931;-77
2022/07/05 08:55:45;;;;;;;;;;;;;;;27.44;70.65;97966.88;5087954;28;19920;-78
2022/07/05 08:58:11;;;;;;;;;;;;;;;27.64;71.76;97965.19;5071895;28;19927;-80
2022/07/05 09:00:36;;;;;;;;;;;;;;;27.73;70.95;97969.56;5068504;28;19916;-78
2022/07/05 09:03:02;;;;;;;;;;;;;;;27.87;71.20;97969.50;5076923;28;19954;-77
2022/07/05 09:05:28;;;;;;;;;;;;;;;27.74;72.69;97974.78;5067856;28;20384;-78
2022/07/05 09:08:00;;;;;;;;;;;;;;;27.40;72.38;97973.69;5068478;28;19923;-79
2022/07/05 09:10:26;;;;;;;;;;;;;;;26.69;74.22;97978.59;5075624;28;19920;-78
2022/07/05 09:12:52;;;;;;;;;;;;;;;26.53;75.57;97976.94;5080044;28;19923;-73
2022/07/05 09:15:17;;;;;;;;;;;;;;;25.88;78.03;97976.41;5073073;28;19920;-78
2022/07/05 09:17:45;;;;;;;;;;;;;;;26.18;76.86;97971.31;5071859;28;19917;-80
2022/07/05 09:20:12;;;;;;;;;;;;;;;26.20;78.54;97966.09;5075723;28;20431;-77
2022/07/05 09:22:49;;;;;;;;;;;;;;;26.32;78.66;97974.13;5081320;28;19928;-77
2022/07/05 09:25:19;;;;;;;;;;;;;;;26.48;81.01;97971.75;5074737;28;20012;-79
2022/07/05 09:27:48;;;;;;;;;;;;;;;26.54;81.90;97975.75;5079133;28;19916;-80
2022/07/05 09:30:22;;;;;;;;;;;;;;;27.05;79.38;97974.56;5081144;28;19924;-80
2022/07/05 09:32:48;;;;;;;;;;;;;;;26.89;77.40;97982.59;5091758;28;19916;-79
2022/07/05 09:35:19;;;;;;;;;;;;;;;27.21;76.19;97972.13;5079138;28;20008;-79
2022/07/05 09:37:44;;;;;;;;;;;;;;;28.04;74.65;97971.41;5086021;28;19916;-79
2022/07/05 09:40:10;;;;;;;;;;;;;;;27.92;73.73;97966.25;5084909;28;19968;-78
2022/07/05 09:42:35;;;;;;;;;;;;;;;28.10;71.57;97973.44;5082990;28;19916;-76
2022/07/05 09:45:00;;;;;;;;;;;;;;;28.18;71.77;97968.56;5089578;28;19983;-78
2022/07/05 09:47:29;;;;;;;;;;;;;;;28.48;73.24;97965.13;5088254;28;19916;-78
2022/07/05 09:49:55;;;;;;;;;;;;;;;27.42;76.74;97963.63;5076681;28;19923;-79
2022/07/05 09:52:39;;;;;;;;;;;;;;;27.74;76.28;97965.56;5081361;28;19916;-79
2022/07/05 09:55:19;;;;;;;;;;;;;;;28.15;73.66;97966.59;5090763;28;19994;-77
2022/07/05 09:57:46;;;;;;;;;;;;;;;27.53;74.70;97961.63;5076496;28;20375;-79
2022/07/05 10:00:15;;;;;;;;;;;;;;;27.10;75.75;97960.09;5072410;28;19916;-78
2022/07/05 10:02:41;;;;;;;;;;;;;;;27.98;72.34;97959.00;5100304;28;19922;-80
2022/07/05 10:05:07;;;;;;;;;;;;;;;27.26;74.63;97949.22;5070679;28;20380;-78
2022/07/05 10:07:32;;;;;;;;;;;;;;;27.12;74.18;97952.09;5071416;28;19924;-80
2022/07/05 10:09:58;;;;;;;;;;;;;;;27.89;70.63;97950.22;5080293;28;19922;-79
2022/07/05 10:12:23;;;;;;;;;;;;;;;28.39;69.81;97951.53;5071925;28;19923;-78
2022/07/05 10:14:48;;;;;;;;;;;;;;;29.24;66.93;97956.47;5079283;28;19981;-79
2022/07/05 10:17:14;;;;;;;;;;;;;;;28.28;70.72;97948.00;5079443;28;19947;-78
2022/07/05 10:19:41;;;;;;;;;;;;;;;27.81;74.53;97955.09;5090408;28;19933;-80
2022/07/05 10:22:06;;;;;;;;;;;;;;;26.95;78.49;97936.06;5076763;28;19923;-80
2022/07/05 10:24:33;;;;;;;;;;;;;;;27.21;74.88;97935.59;5084200;28;20355;-78
2022/07/05 10:26:58;;;;;;;;;;;;;;;27.44;74.88;97929.56;5106946;28;19919;-77
2022/07/05 10:29:24;;;;;;;;;;;;;;;27.63;72.94;97921.41;5079876;28;20433;-76
2022/07/05 10:31:50;;;;;;;;;;;;;;;27.80;71.87;97918.91;5086298;28;19927;-78
2022/07/05 10:34:17;;;;;;;;;;;;;;;27.67;70.91;97919.41;5084164;28;20018;-75
2022/07/05 10:36:42;;;;;;;;;;;;;;;27.75;70.52;97922.19;5081840;28;20022;-79
2022/07/05 10:39:08;;;;;;;;;;;;;;;28.48;68.69;97923.72;5089236;28;19920;-74
2022/07/05 10:41:34;;;;;;;;;;;;;;;29.21;65.91;97927.06;5078679;28;19916;-77
2022/07/05 10:44:00;;;;;;;;;;;;;;;28.38;66.62;97927.41;5086077;28;19916;-77
2022/07/05 10:46:35;;;;;;;;;;;;;;;27.95;66.84;97923.25;5074629;28;19916;-78
2022/07/05 10:49:10;;;;;;;;;;;;;;;28.21;65.82;97917.09;5079433;28;20372;-81
2022/07/05 10:51:36;;;;;;;;;;;;;;;27.66;67.20;97914.16;5075930;28;19924;-77
2022/07/05 10:54:02;;;;;;;;;;;;;;;28.15;64.03;97907.50;5078975;28;19947;-79
2022/07/05 10:56:28;;;;;;;;;;;;;;;27.91;64.73;97902.81;5092834;28;20301;-76
2022/07/05 10:59:07;;;;;;;;;;;;;;;28.09;62.25;97909.13;5081793;28;19923;-81
2022/07/05 11:01:34;;;;;;;;;;;;;;;27.76;62.08;97909.69;5070236;28;19916;-77
2022/07/05 11:04:02;;;;;;;;;;;;;;;27.63;60.59;97904.53;5072217;28;20065;-74
2022/07/05 11:06:29;;;;;;;;;;;;;;;28.48;58.38;97908.81;5085110;28;19927;-76
2022/07/05 11:09:02;;;;;;;;;;;;;;;28.81;58.04;97910.19;5070368;28;20003;-75
2022/07/05 11:11:28;;;;;;;;;;;;;;;28.44;60.17;97914.50;5077305;28;19923;-73
2022/07/05 11:13:54;;;;;;;;;;;;;;;28.18;58.86;97913.09;5071600;28;20001;-76
2022/07/05 11:16:23;;;;;;;;;;;;;;;27.94;59.81;97916.03;5071256;28;19979;-76
2022/07/05 11:18:52;;;;;;;;;;;;;;;28.21;59.19;97911.47;5071197;28;19982;-75
2022/07/05 11:21:18;;;;;;;;;;;;;;;28.74;58.30;97901.78;5071081;28;20439;-75
2022/07/05 11:23:43;;;;;;;;;;;;;;;28.60;60.36;97909.13;5068330;28;19917;-75
2022/07/05 11:26:09;;;;;;;;;;;;;;;28.19;62.04;97902.66;5073434;28;19923;-75
2022/07/05 11:28:44;;;;;;;;;;;;;;;27.84;61.58;97909.28;5072197;28;20380;-76
2022/07/05 11:31:09;;;;;;;;;;;;;;;27.92;60.17;97910.81;5068800;28;19924;-78
2022/07/05 11:33:34;;;;;;;;;;;;;;;27.79;59.47;97906.88;5069131;28;19916;-74
2022/07/05 11:36:00;;;;;;;;;;;;;;;27.78;58.40;97907.28;5071526;28;19950;-75
2022/07/05 11:38:27;;;;;;;;;;;;;;;28.13;57.28;97902.25;5070918;28;20300;-74
2022/07/05 11:41:12;;;;;;;;;;;;;;;28.47;56.84;97908.06;5070912;28;19919;-75
2022/07/05 11:43:38;;;;;;;;;;;;;;;28.74;58.28;97904.63;5070513;28;19917;-75
2022/07/05 11:46:04;;;;;;;;;;;;;;;28.70;58.03;97897.00;5070046;28;20007;-76
2022/07/05 11:48:29;;;;;;;;;;;;;;;28.76;58.58;97880.44;5068949;28;20478;-74
2022/07/05 11:50:57;;;;;;;;;;;;;;;28.88;58.80;97882.72;5070468;28;19916;-74
2022/07/05 11:53:30;;;;;;;;;;;;;;;29.51;57.01;97881.22;5070795;28;19932;-74
2022/07/05 11:56:00;;;;;;;;;;;;;;;29.29;56.94;97879.88;5071290;28;19919;-74
2022/07/05 11:58:32;;;;;;;;;;;;;;;28.66;58.45;97875.75;5073247;28;20388;-73
2022/07/05 12:00:58;;;;;;;;;;;;;;;28.15;60.10;97871.72;5070428;28;19923;-76
2022/07/05 12:03:23;;;;;;;;;;;;;;;28.25;60.53;97867.22;5067877;28;20289;-76
2022/07/05 12:05:49;;;;;;;;;;;;;;;27.53;61.54;97866.06;5073793;28;19924;-74
2022/07/05 12:08:23;;;;;;;;;;;;;;;28.39;59.00;97860.66;5072785;28;20427;-77
2022/07/05 12:14:02;;;;;;;;;;;;;;;29.08;54.17;97863.19;5068557;28;19923;-75
2022/07/05 12:16:27;;;;;;;;;;;;;;;28.63;57.60;97863.22;5056780;28;19916;-75
2022/07/05 12:19:00;;;;;;;;;;;;;;;28.44;58.70;97855.41;5071669;28;19924;-73
2022/07/05 12:21:26;;;;;;;;;;;;;;;29.05;55.20;97862.03;5072332;28;19916;-75
2022/07/05 12:23:51;;;;;;;;;;;;;;;29.54;54.93;97857.81;5071956;28;19920;-74
2022/07/05 12:26:17;;;;;;;;;;;;;;;29.08;54.23;97861.19;5072685;28;19919;-73
2022/07/05 12:28:43;;;;;;;;;;;;;;;29.20;52.56;97860.63;5071492;28;19916;-75
2022/07/05 12:31:19;;;;;;;;;;;;;;;29.35;50.07;97852.06;5072073;28;19924;-74
2022/07/05 12:33:44;;;;;;;;;;;;;;;28.86;50.12;97845.75;5075193;28;19916;-75
2022/07/05 12:36:13;;;;;;;;;;;;;;;28.76;50.22;97840.25;5075087;28;19926;-76
2022/07/05 12:38:38;;;;;;;;;;;;;;;29.46;48.78;97844.25;5071937;28;20503;-73
2022/07/05 12:41:03;;;;;;;;;;;;;;;29.45;48.66;97837.78;5071182;28;19923;-73
2022/07/05 12:43:29;;;;;;;;;;;;;;;29.71;48.21;97839.84;5071147;28;19998;-77
2022/07/05 12:46:02;;;;;;;;;;;;;;;29.20;48.72;97842.91;5071783;28;19923;-77
2022/07/05 12:48:33;;;;;;;;;;;;;;;29.18;48.77;97836.91;5071121;28;19909;-75
2022/07/05 12:51:02;;;;;;;;;;;;;;;29.40;48.54;97829.03;5070807;28;19926;-75